sensor_id;sensor_type;location;lat;lon;timestamp;pressure;altitude;pressure_sealevel;temperature;humidity
81608;BME280;71022;48.122;11.576;2023-11-19T00:14:07;95659.97;;;4.77;91.36
81608;BME280;71022;48.122;11.576;2023-11-19T01:24:04;95591.06;;;5.33;93.24
81608;BME280;71022;48.122;11.576;2023-11-19T01:26:54;95577.59;;;5.45;93.14
81608;BME280;71022;48.122;11.576;2023-11-19T01:33:39;95562.53;;;5.56;93.00
81608;BME280;71022;48.122;11.576;2023-11-19T01:36:35;95571.34;;;5.45;93.84
81608;BME280;71022;48.122;11.576;2023-11-19T01:39:55;95560.44;;;5.53;93.90
81608;BME280;71022;48.122;11.576;2023-11-19T01:46:55;95549.91;;;5.52;94.69
81608;BME280;71022;48.122;11.576;2023-11-19T01:50:34;95544.41;;;5.69;93.72
81608;BME280;71022;48.122;11.576;2023-11-19T01:53:44;95542.00;;;5.59;94.15
81608;BME280;71022;48.122;11.576;2023-11-19T01:57:05;95541.06;;;5.64;94.68
81608;BME280;71022;48.122;11.576;2023-11-19T02:07:56;95517.66;;;5.88;94.51
81608;BME280;71022;48.122;11.576;2023-11-19T02:11:33;95514.91;;;5.88;93.87
81608;BME280;71022;48.122;11.576;2023-11-19T02:19:20;95493.88;;;5.89;95.64
81608;BME280;71022;48.122;11.576;2023-11-19T02:22:23;95490.78;;;6.07;94.39
81608;BME280;71022;48.122;11.576;2023-11-19T02:30:12;95478.38;;;6.19;94.57
81608;BME280;71022;48.122;11.576;2023-11-19T02:36:26;95465.41;;;6.16;95.18
81608;BME280;71022;48.122;11.576;2023-11-19T02:46:43;95464.66;;;6.36;95.36
81608;BME280;71022;48.122;11.576;2023-11-19T02:49:36;95450.69;;;6.37;95.21
81608;BME280;71022;48.122;11.576;2023-11-19T02:52:35;95458.16;;;6.49;95.37
81608;BME280;71022;48.122;11.576;2023-11-19T02:59:43;95426.50;;;6.56;94.97
81608;BME280;71022;48.122;11.576;2023-11-19T03:03:43;95416.50;;;6.60;94.75
81608;BME280;71022;48.122;11.576;2023-11-19T03:08:46;95416.13;;;6.71;94.32
81608;BME280;71022;48.122;11.576;2023-11-19T03:15:41;95412.13;;;6.68;95.29
81608;BME280;71022;48.122;11.576;2023-11-19T03:19:19;95409.13;;;6.82;95.55
81608;BME280;71022;48.122;11.576;2023-11-19T03:47:15;95418.63;;;6.96;95.86
81608;BME280;71022;48.122;11.576;2023-11-19T03:58:30;95414.72;;;7.18;95.11
81608;BME280;71022;48.122;11.576;2023-11-19T04:02:27;95407.06;;;7.11;95.16
81608;BME280;71022;48.122;11.576;2023-11-19T04:06:04;95409.66;;;7.29;95.44
81608;BME280;71022;48.122;11.576;2023-11-19T04:12:11;95418.94;;;7.15;96.34
81608;BME280;71022;48.122;11.576;2023-11-19T04:20:08;95416.47;;;7.22;96.97
81608;BME280;71022;48.122;11.576;2023-11-19T04:27:29;95415.13;;;7.29;96.50
81608;BME280;71022;48.122;11.576;2023-11-19T04:30:08;95425.81;;;7.34;96.65
81608;BME280;71022;48.122;11.576;2023-11-19T04:32:48;95414.94;;;7.46;96.49
81608;BME280;71022;48.122;11.576;2023-11-19T04:40:18;95418.38;;;7.55;95.94
81608;BME280;71022;48.122;11.576;2023-11-19T04:43:14;95424.28;;;7.57;96.41
81608;BME280;71022;48.122;11.576;2023-11-19T04:45:55;95419.19;;;7.55;97.23
81608;BME280;71022;48.122;11.576;2023-11-19T04:48:54;95420.09;;;7.71;98.28
81608;BME280;71022;48.122;11.576;2023-11-19T04:51:45;95412.03;;;7.75;98.97
81608;BME280;71022;48.122;11.576;2023-11-19T04:54:59;95414.53;;;7.80;99.61
81608;BME280;71022;48.122;11.576;2023-11-19T05:56:22;95451.38;;;9.07;98.04
81608;BME280;71022;48.122;11.576;2023-11-19T05:59:53;95451.56;;;9.14;97.06
81608;BME280;71022;48.122;11.576;2023-11-19T06:54:40;95467.63;;;9.28;97.55
81608;BME280;71022;48.122;11.576;2023-11-19T06:57:46;95468.25;;;9.49;99.46
81608;BME280;71022;48.122;11.576;2023-11-19T07:00:14;95469.47;;;9.52;97.02
81608;BME280;71022;48.122;11.576;2023-11-19T07:02:41;95468.56;;;9.48;96.71
81608;BME280;71022;48.122;11.576;2023-11-19T07:05:09;95468.13;;;9.45;96.81
81608;BME280;71022;48.122;11.576;2023-11-19T07:07:37;95469.38;;;9.48;96.82
81608;BME280;71022;48.122;11.576;2023-11-19T07:10:06;95473.63;;;9.45;96.90
81608;BME280;71022;48.122;11.576;2023-11-19T07:12:37;95477.91;;;9.59;96.66
81608;BME280;71022;48.122;11.576;2023-11-19T07:15:05;95470.81;;;9.58;96.55
81608;BME280;71022;48.122;11.576;2023-11-19T07:17:33;95469.97;;;9.69;95.87
81608;BME280;71022;48.122;11.576;2023-11-19T07:20:02;95474.38;;;9.74;95.60
81608;BME280;71022;48.122;11.576;2023-11-19T07:22:31;95474.91;;;9.64;95.39
81608;BME280;71022;48.122;11.576;2023-11-19T07:24:59;95477.66;;;9.64;95.74
81608;BME280;71022;48.122;11.576;2023-11-19T07:27:26;95488.16;;;9.62;96.06
81608;BME280;71022;48.122;11.576;2023-11-19T07:29:54;95474.53;;;9.65;95.90
81608;BME280;71022;48.122;11.576;2023-11-19T07:32:22;95481.97;;;9.65;96.14
81608;BME280;71022;48.122;11.576;2023-11-19T07:34:49;95490.78;;;9.70;95.49
81608;BME280;71022;48.122;11.576;2023-11-19T07:37:17;95495.09;;;9.71;96.05
81608;BME280;71022;48.122;11.576;2023-11-19T07:39:45;95498.22;;;9.85;95.12
81608;BME280;71022;48.122;11.576;2023-11-19T07:42:12;95509.09;;;9.82;95.06
81608;BME280;71022;48.122;11.576;2023-11-19T07:44:39;95505.41;;;9.90;94.64
81608;BME280;71022;48.122;11.576;2023-11-19T07:47:07;95522.06;;;9.97;94.73
81608;BME280;71022;48.122;11.576;2023-11-19T07:50:29;95511.06;;;9.97;94.30
81608;BME280;71022;48.122;11.576;2023-11-19T07:53:09;95492.19;;;9.80;94.66
81608;BME280;71022;48.122;11.576;2023-11-19T07:55:39;95512.38;;;9.87;94.71
81608;BME280;71022;48.122;11.576;2023-11-19T07:58:27;95504.31;;;9.79;95.33
81608;BME280;71022;48.122;11.576;2023-11-19T08:01:27;95518.13;;;9.98;94.67
81608;BME280;71022;48.122;11.576;2023-11-19T08:04:15;95511.78;;;9.94;94.35
81608;BME280;71022;48.122;11.576;2023-11-19T08:06:58;95514.56;;;10.25;94.20
81608;BME280;71022;48.122;11.576;2023-11-19T08:09:34;95507.66;;;10.16;93.22
81608;BME280;71022;48.122;11.576;2023-11-19T08:14:58;95509.16;;;10.13;92.74
81608;BME280;71022;48.122;11.576;2023-11-19T08:21:59;95509.56;;;10.27;92.63
81608;BME280;71022;48.122;11.576;2023-11-19T08:32:57;95512.91;;;10.36;91.95
81608;BME280;71022;48.122;11.576;2023-11-19T08:36:32;95524.25;;;10.50;91.81
81608;BME280;71022;48.122;11.576;2023-11-19T08:42:55;95513.69;;;10.37;92.04
81608;BME280;71022;48.122;11.576;2023-11-19T08:49:22;95506.00;;;10.42;92.08
81608;BME280;71022;48.122;11.576;2023-11-19T08:52:41;95509.63;;;10.46;91.83
81608;BME280;71022;48.122;11.576;2023-11-19T08:55:25;95515.75;;;10.55;91.67
81608;BME280;71022;48.122;11.576;2023-11-19T09:01:34;95498.38;;;10.51;91.66
81608;BME280;71022;48.122;11.576;2023-11-19T09:09:06;95512.91;;;10.68;90.78
81608;BME280;71022;48.122;11.576;2023-11-19T09:17:04;95500.66;;;10.81;89.90
81608;BME280;71022;48.122;11.576;2023-11-19T09:20:32;95528.75;;;10.90;89.76
81608;BME280;71022;48.122;11.576;2023-11-19T09:28:20;95533.53;;;10.93;89.67
81608;BME280;71022;48.122;11.576;2023-11-19T09:31:44;95529.50;;;10.90;89.61
81608;BME280;71022;48.122;11.576;2023-11-19T09:35:43;95535.25;;;11.17;88.47
81608;BME280;71022;48.122;11.576;2023-11-19T09:39:24;95544.56;;;11.12;88.65
81608;BME280;71022;48.122;11.576;2023-11-19T09:42:58;95533.66;;;11.16;88.21
81608;BME280;71022;48.122;11.576;2023-11-19T09:46:25;95539.69;;;11.05;89.10
81608;BME280;71022;48.122;11.576;2023-11-19T09:49:36;95539.78;;;11.09;88.95
81608;BME280;71022;48.122;11.576;2023-11-19T09:52:36;95523.47;;;11.00;90.42
81608;BME280;71022;48.122;11.576;2023-11-19T09:55:35;95516.94;;;11.05;89.86
81608;BME280;71022;48.122;11.576;2023-11-19T09:58:22;95513.00;;;11.06;89.20
81608;BME280;71022;48.122;11.576;2023-11-19T10:02:04;95520.59;;;11.28;89.04
81608;BME280;71022;48.122;11.576;2023-11-19T10:05:30;95508.56;;;11.36;87.96
81608;BME280;71022;48.122;11.576;2023-11-19T10:08:42;95509.31;;;11.52;87.64
81608;BME280;71022;48.122;11.576;2023-11-19T10:11:53;95487.16;;;11.45;88.00
81608;BME280;71022;48.122;11.576;2023-11-19T10:15:01;95496.91;;;11.62;87.57
81608;BME280;71022;48.122;11.576;2023-11-19T10:18:15;95496.88;;;11.58;86.96
81608;BME280;71022;48.122;11.576;2023-11-19T10:24:00;95476.09;;;11.61;86.59
81608;BME280;71022;48.122;11.576;2023-11-19T10:27:09;95496.56;;;11.83;86.16
81608;BME280;71022;48.122;11.576;2023-11-19T10:34:05;95475.03;;;12.07;84.26
81608;BME280;71022;48.122;11.576;2023-11-19T10:38:15;95488.03;;;12.30;83.82
81608;BME280;71022;48.122;11.576;2023-11-19T10:49:03;95457.94;;;12.66;82.13
81608;BME280;71022;48.122;11.576;2023-11-19T10:52:23;95456.25;;;12.85;81.16
81608;BME280;71022;48.122;11.576;2023-11-19T10:59:18;95450.44;;;12.93;79.98
81608;BME280;71022;48.122;11.576;2023-11-19T11:02:43;95447.56;;;12.83;79.57
81608;BME280;71022;48.122;11.576;2023-11-19T11:30:46;95444.16;;;12.93;79.41
81608;BME280;71022;48.122;11.576;2023-11-19T11:38:23;95422.19;;;13.00;78.67
81608;BME280;71022;48.122;11.576;2023-11-19T11:42:30;95418.63;;;12.96;78.12
81608;BME280;71022;48.122;11.576;2023-11-19T11:46:14;95410.66;;;13.17;76.89
81608;BME280;71022;48.122;11.576;2023-11-19T11:49:41;95398.97;;;13.27;76.84
81608;BME280;71022;48.122;11.576;2023-11-19T11:53:28;95415.44;;;13.23;76.33
81608;BME280;71022;48.122;11.576;2023-11-19T12:01:33;95417.16;;;13.32;75.98
81608;BME280;71022;48.122;11.576;2023-11-19T12:09:19;95417.72;;;13.48;75.16
81608;BME280;71022;48.122;11.576;2023-11-19T12:16:45;95411.69;;;13.39;75.06
81608;BME280;71022;48.122;11.576;2023-11-19T12:32:48;95408.78;;;13.58;73.93
81608;BME280;71022;48.122;11.576;2023-11-19T12:36:16;95396.69;;;13.36;73.94
81608;BME280;71022;48.122;11.576;2023-11-19T12:38:43;95389.28;;;13.40;74.10
81608;BME280;71022;48.122;11.576;2023-11-19T12:41:12;95398.22;;;13.30;74.41
81608;BME280;71022;48.122;11.576;2023-11-19T12:43:46;95387.22;;;13.34;74.62
81608;BME280;71022;48.122;11.576;2023-11-19T12:46:23;95388.09;;;13.41;74.19
81608;BME280;71022;48.122;11.576;2023-11-19T12:48:51;95389.28;;;13.40;74.84
81608;BME280;71022;48.122;11.576;2023-11-19T12:51:19;95388.19;;;13.48;73.40
81608;BME280;71022;48.122;11.576;2023-11-19T12:53:53;95388.84;;;13.38;73.69
81608;BME280;71022;48.122;11.576;2023-11-19T12:56:28;95386.56;;;13.44;73.59
81608;BME280;71022;48.122;11.576;2023-11-19T12:58:56;95389.28;;;13.40;74.15
81608;BME280;71022;48.122;11.576;2023-11-19T13:01:24;95384.31;;;13.56;72.95
81608;BME280;71022;48.122;11.576;2023-11-19T13:03:53;95374.72;;;13.43;73.58
81608;BME280;71022;48.122;11.576;2023-11-19T13:06:20;95393.59;;;13.41;74.06
81608;BME280;71022;48.122;11.576;2023-11-19T13:08:51;95371.88;;;13.36;73.74
81608;BME280;71022;48.122;11.576;2023-11-19T13:11:35;95385.16;;;13.27;74.33
81608;BME280;71022;48.122;11.576;2023-11-19T13:14:04;95385.13;;;13.23;74.44
81608;BME280;71022;48.122;11.576;2023-11-19T13:16:32;95385.50;;;13.22;74.89
81608;BME280;71022;48.122;11.576;2023-11-19T13:19:36;95380.41;;;13.24;74.77
81608;BME280;71022;48.122;11.576;2023-11-19T13:22:03;95385.50;;;13.22;75.03
81608;BME280;71022;48.122;11.576;2023-11-19T13:24:31;95383.91;;;13.21;75.02
81608;BME280;71022;48.122;11.576;2023-11-19T13:26:58;95375.56;;;13.14;75.26
81608;BME280;71022;48.122;11.576;2023-11-19T13:29:28;95379.47;;;13.13;75.34
81608;BME280;71022;48.122;11.576;2023-11-19T13:31:58;95371.31;;;13.20;75.23
81608;BME280;71022;48.122;11.576;2023-11-19T13:34:25;95375.22;;;13.19;75.56
81608;BME280;71022;48.122;11.576;2023-11-19T13:36:52;95359.53;;;13.23;75.38
81608;BME280;71022;48.122;11.576;2023-11-19T13:39:20;95365.41;;;13.21;75.29
81608;BME280;71022;48.122;11.576;2023-11-19T13:41:50;95363.50;;;13.29;75.03
81608;BME280;71022;48.122;11.576;2023-11-19T13:44:17;95363.91;;;13.27;74.85
81608;BME280;71022;48.122;11.576;2023-11-19T13:46:45;95366.44;;;13.10;75.59
81608;BME280;71022;48.122;11.576;2023-11-19T13:49:14;95371.56;;;13.08;75.63
81608;BME280;71022;48.122;11.576;2023-11-19T13:51:45;95366.25;;;12.99;76.00
81608;BME280;71022;48.122;11.576;2023-11-19T13:54:13;95361.56;;;13.00;75.95
81608;BME280;71022;48.122;11.576;2023-11-19T13:56:41;95360.72;;;12.96;76.35
81608;BME280;71022;48.122;11.576;2023-11-19T13:59:08;95371.53;;;12.82;77.37
81608;BME280;71022;48.122;11.576;2023-11-19T14:01:37;95364.88;;;12.83;77.29
81608;BME280;71022;48.122;11.576;2023-11-19T14:04:07;95352.78;;;12.91;77.34
81608;BME280;71022;48.122;11.576;2023-11-19T14:06:37;95347.19;;;12.84;77.61
81608;BME280;71022;48.122;11.576;2023-11-19T14:09:06;95336.91;;;12.81;77.18
81608;BME280;71022;48.122;11.576;2023-11-19T14:11:36;95347.19;;;12.84;77.45
81608;BME280;71022;48.122;11.576;2023-11-19T14:14:03;95343.25;;;12.85;77.65
81608;BME280;71022;48.122;11.576;2023-11-19T14:16:35;95337.66;;;12.77;77.77
81608;BME280;71022;48.122;11.576;2023-11-19T14:19:03;95338.47;;;12.78;78.08
81608;BME280;71022;48.122;11.576;2023-11-19T14:21:30;95347.94;;;12.81;77.90
81608;BME280;71022;48.122;11.576;2023-11-19T14:23:57;95345.19;;;12.81;77.84
81608;BME280;71022;48.122;11.576;2023-11-19T14:26:29;95340.03;;;12.79;77.56
81608;BME280;71022;48.122;11.576;2023-11-19T14:28:56;95342.47;;;12.84;77.53
81608;BME280;71022;48.122;11.576;2023-11-19T14:31:27;95334.97;;;12.85;77.56
81608;BME280;71022;48.122;11.576;2023-11-19T14:33:58;95336.16;;;12.84;77.25
81608;BME280;71022;48.122;11.576;2023-11-19T14:36:26;95330.53;;;12.76;77.43
81608;BME280;71022;48.122;11.576;2023-11-19T14:38:53;95345.47;;;12.72;77.22
81608;BME280;71022;48.122;11.576;2023-11-19T14:41:20;95346.34;;;12.80;76.65
81608;BME280;71022;48.122;11.576;2023-11-19T14:43:47;95343.28;;;12.88;76.15
81608;BME280;71022;48.122;11.576;2023-11-19T14:46:21;95344.91;;;12.89;76.18
81608;BME280;71022;48.122;11.576;2023-11-19T14:48:51;95341.97;;;12.78;76.23
81608;BME280;71022;48.122;11.576;2023-11-19T14:51:18;95333.63;;;12.71;76.45
81608;BME280;71022;48.122;11.576;2023-11-19T14:53:46;95336.06;;;12.76;75.74
81608;BME280;71022;48.122;11.576;2023-11-19T14:56:14;95326.88;;;12.65;76.28
81608;BME280;71022;48.122;11.576;2023-11-19T14:58:41;95333.59;;;12.68;75.88
81608;BME280;71022;48.122;11.576;2023-11-19T15:01:12;95335.75;;;12.55;76.81
81608;BME280;71022;48.122;11.576;2023-11-19T15:03:44;95330.91;;;12.45;76.90
81608;BME280;71022;48.122;11.576;2023-11-19T15:06:14;95331.00;;;12.52;76.38
81608;BME280;71022;48.122;11.576;2023-11-19T15:08:42;95339.59;;;12.47;76.63
81608;BME280;71022;48.122;11.576;2023-11-19T15:11:09;95339.41;;;12.37;77.32
81608;BME280;71022;48.122;11.576;2023-11-19T15:13:36;95336.94;;;12.28;77.09
81608;BME280;71022;48.122;11.576;2023-11-19T15:16:05;95337.59;;;12.18;77.88
81608;BME280;71022;48.122;11.576;2023-11-19T15:18:33;95332.91;;;12.22;77.58
81608;BME280;71022;48.122;11.576;2023-11-19T15:21:00;95334.56;;;12.27;77.10
81608;BME280;71022;48.122;11.576;2023-11-19T15:23:28;95332.13;;;12.21;77.93
81608;BME280;71022;48.122;11.576;2023-11-19T15:25:56;95321.28;;;12.06;78.12
81608;BME280;71022;48.122;11.576;2023-11-19T15:28:23;95326.78;;;12.06;78.08
81608;BME280;71022;48.122;11.576;2023-11-19T15:30:50;95326.25;;;11.97;78.96
81608;BME280;71022;48.122;11.576;2023-11-19T15:33:18;95335.44;;;12.08;78.39
81608;BME280;71022;48.122;11.576;2023-11-19T15:35:48;95338.47;;;11.99;78.73
81608;BME280;71022;48.122;11.576;2023-11-19T15:38:15;95341.34;;;11.84;79.10
81608;BME280;71022;48.122;11.576;2023-11-19T15:40:45;95337.91;;;11.90;79.05
81608;BME280;71022;48.122;11.576;2023-11-19T15:43:15;95346.84;;;11.84;79.45
81608;BME280;71022;48.122;11.576;2023-11-19T15:45:44;95350.31;;;11.81;79.46
81608;BME280;71022;48.122;11.576;2023-11-19T15:48:11;95349.78;;;11.72;80.01
81608;BME280;71022;48.122;11.576;2023-11-19T15:50:44;95343.41;;;11.68;80.25
81608;BME280;71022;48.122;11.576;2023-11-19T15:53:11;95351.53;;;11.60;80.56
81608;BME280;71022;48.122;11.576;2023-11-19T15:55:39;95356.94;;;11.57;80.90
81608;BME280;71022;48.122;11.576;2023-11-19T15:58:21;95353.84;;;11.58;80.37
81608;BME280;71022;48.122;11.576;2023-11-19T16:00:55;95353.41;;;11.56;80.96
81608;BME280;71022;48.122;11.576;2023-11-19T16:03:25;95355.31;;;11.52;81.02
81608;BME280;71022;48.122;11.576;2023-11-19T16:05:57;95361.97;;;11.51;80.52
81608;BME280;71022;48.122;11.576;2023-11-19T16:08:36;95374.91;;;11.51;80.54
81608;BME280;71022;48.122;11.576;2023-11-19T16:11:05;95367.72;;;11.65;80.71
81608;BME280;71022;48.122;11.576;2023-11-19T16:13:33;95370.63;;;11.73;80.41
81608;BME280;71022;48.122;11.576;2023-11-19T16:16:03;95368.91;;;11.64;80.20
81608;BME280;71022;48.122;11.576;2023-11-19T16:18:31;95357.94;;;11.68;80.38
81608;BME280;71022;48.122;11.576;2023-11-19T16:21:05;95362.53;;;11.60;80.88
81608;BME280;71022;48.122;11.576;2023-11-19T16:23:33;95359.69;;;11.57;81.16
81608;BME280;71022;48.122;11.576;2023-11-19T16:26:07;95360.09;;;11.55;81.27
81608;BME280;71022;48.122;11.576;2023-11-19T16:28:37;95354.88;;;11.50;81.52
81608;BME280;71022;48.122;11.576;2023-11-19T16:31:06;95351.28;;;11.46;81.71
81608;BME280;71022;48.122;11.576;2023-11-19T16:33:34;95366.31;;;11.52;81.37
81608;BME280;71022;48.122;11.576;2023-11-19T16:36:04;95353.72;;;11.51;81.78
81608;BME280;71022;48.122;11.576;2023-11-19T16:38:35;95359.28;;;11.55;81.49
81608;BME280;71022;48.122;11.576;2023-11-19T16:41:03;95350.97;;;11.51;81.26
81608;BME280;71022;48.122;11.576;2023-11-19T16:43:30;95355.03;;;11.38;82.29
81608;BME280;71022;48.122;11.576;2023-11-19T16:45:58;95354.47;;;11.29;82.62
81608;BME280;71022;48.122;11.576;2023-11-19T16:48:25;95353.72;;;11.32;82.04
81608;BME280;71022;48.122;11.576;2023-11-19T16:50:52;95348.97;;;11.29;82.41
81608;BME280;71022;48.122;11.576;2023-11-19T16:53:23;95350.88;;;11.25;82.59
81608;BME280;71022;48.122;11.576;2023-11-19T16:55:50;95350.13;;;11.28;81.99
81608;BME280;71022;48.122;11.576;2023-11-19T16:58:21;95350.06;;;11.25;82.23
81608;BME280;71022;48.122;11.576;2023-11-19T17:00:49;95343.78;;;11.24;81.79
81608;BME280;71022;48.122;11.576;2023-11-19T17:03:23;95339.16;;;11.28;81.59
81608;BME280;71022;48.122;11.576;2023-11-19T17:05:51;95345.38;;;11.25;80.41
81608;BME280;71022;48.122;11.576;2023-11-19T17:08:18;95349.66;;;11.45;79.29
81608;BME280;71022;48.122;11.576;2023-11-19T17:10:45;95346.94;;;11.26;79.75
81608;BME280;71022;48.122;11.576;2023-11-19T17:13:13;95346.94;;;11.26;79.20
81608;BME280;71022;48.122;11.576;2023-11-19T17:15:41;95348.69;;;11.34;79.01
81608;BME280;71022;48.122;11.576;2023-11-19T17:18:09;95357.34;;;11.36;78.62
81608;BME280;71022;48.122;11.576;2023-11-19T17:20:37;95355.81;;;11.39;78.13
81608;BME280;71022;48.122;11.576;2023-11-19T17:23:05;95364.63;;;11.25;78.13
81608;BME280;71022;48.122;11.576;2023-11-19T17:25:33;95354.03;;;11.27;77.91
81608;BME280;71022;48.122;11.576;2023-11-19T17:28:00;95366.50;;;11.21;78.02
81608;BME280;71022;48.122;11.576;2023-11-19T17:30:27;95360.19;;;11.21;77.42
81608;BME280;71022;48.122;11.576;2023-11-19T17:32:54;95373.06;;;11.36;77.18
81608;BME280;71022;48.122;11.576;2023-11-19T17:35:22;95377.81;;;11.39;77.23
81608;BME280;71022;48.122;11.576;2023-11-19T17:37:49;95379.19;;;11.29;76.71
81608;BME280;71022;48.122;11.576;2023-11-19T17:40:16;95375.16;;;11.23;77.01
81608;BME280;71022;48.122;11.576;2023-11-19T17:42:43;95372.97;;;11.32;76.59
81608;BME280;71022;48.122;11.576;2023-11-19T17:45:13;95375.69;;;11.29;76.71
81608;BME280;71022;48.122;11.576;2023-11-19T17:47:41;95372.72;;;11.18;76.55
81608;BME280;71022;48.122;11.576;2023-11-19T17:50:09;95374.56;;;11.33;76.22
81608;BME280;71022;48.122;11.576;2023-11-19T17:52:39;95371.56;;;11.19;76.86
81608;BME280;71022;48.122;11.576;2023-11-19T17:55:06;95347.09;;;11.33;76.07
81608;BME280;71022;48.122;11.576;2023-11-19T17:57:40;95345.38;;;11.25;76.05
81608;BME280;71022;48.122;11.576;2023-11-19T18:00:09;95356.28;;;11.22;75.80
81608;BME280;71022;48.122;11.576;2023-11-19T18:02:44;95376.09;;;11.11;76.68
81608;BME280;71022;48.122;11.576;2023-11-19T18:05:12;95381.44;;;11.24;76.26
81608;BME280;71022;48.122;11.576;2023-11-19T18:07:39;95381.59;;;11.11;76.79
81608;BME280;71022;48.122;11.576;2023-11-19T18:10:09;95382.53;;;11.00;77.48
81608;BME280;71022;48.122;11.576;2023-11-19T18:12:36;95384.22;;;11.04;77.17
81608;BME280;71022;48.122;11.576;2023-11-19T18:15:08;95384.22;;;11.04;77.15
81608;BME280;71022;48.122;11.576;2023-11-19T18:17:35;95398.31;;;11.03;77.13
81608;BME280;71022;48.122;11.576;2023-11-19T18:20:06;95404.38;;;11.12;76.88
81608;BME280;71022;48.122;11.576;2023-11-19T18:22:34;95400.63;;;11.01;77.02
81608;BME280;71022;48.122;11.576;2023-11-19T18:25:02;95404.19;;;11.01;77.18
81608;BME280;71022;48.122;11.576;2023-11-19T18:27:30;95396.88;;;11.09;77.46
81608;BME280;71022;48.122;11.576;2023-11-19T18:29:57;95400.94;;;10.96;77.49
81608;BME280;71022;48.122;11.576;2023-11-19T18:32:24;95400.03;;;10.92;77.72
81608;BME280;71022;48.122;11.576;2023-11-19T18:37:54;95379.53;;;11.05;77.00
81608;BME280;71022;48.122;11.576;2023-11-19T18:40:50;95385.44;;;10.88;77.09
81608;BME280;71022;48.122;11.576;2023-11-19T18:43:45;95379.09;;;10.84;77.50
81608;BME280;71022;48.122;11.576;2023-11-19T18:47:09;95390.91;;;10.88;76.92
81608;BME280;71022;48.122;11.576;2023-11-19T18:50:06;95379.81;;;10.81;77.12
81608;BME280;71022;48.122;11.576;2023-11-19T18:57:21;95379.50;;;10.86;75.90
81608;BME280;71022;48.122;11.576;2023-11-19T19:00:40;95385.03;;;11.05;75.54
81608;BME280;71022;48.122;11.576;2023-11-19T19:03:30;95392.00;;;11.02;75.51
81608;BME280;71022;48.122;11.576;2023-11-19T19:10:55;95396.75;;;11.02;75.50
81608;BME280;71022;48.122;11.576;2023-11-19T19:13:23;95401.34;;;10.98;75.76
81608;BME280;71022;48.122;11.576;2023-11-19T19:15:52;95410.59;;;10.90;75.90
81608;BME280;71022;48.122;11.576;2023-11-19T19:18:20;95405.84;;;10.87;76.04
81608;BME280;71022;48.122;11.576;2023-11-19T19:20:48;95425.50;;;10.89;76.60
81608;BME280;71022;48.122;11.576;2023-11-19T19:23:15;95427.94;;;10.94;76.13
81608;BME280;71022;48.122;11.576;2023-11-19T19:25:43;95432.00;;;11.00;76.23
81608;BME280;71022;48.122;11.576;2023-11-19T19:28:11;95423.09;;;10.87;77.16
81608;BME280;71022;48.122;11.576;2023-11-19T19:30:42;95432.59;;;10.90;76.90
81608;BME280;71022;48.122;11.576;2023-11-19T19:33:10;95433.13;;;10.80;77.58
81608;BME280;71022;48.122;11.576;2023-11-19T19:35:39;95441.97;;;10.89;77.24
81608;BME280;71022;48.122;11.576;2023-11-19T19:38:07;95434.13;;;10.72;78.07
81608;BME280;71022;48.122;11.576;2023-11-19T19:40:37;95432.97;;;10.73;78.48
81608;BME280;71022;48.122;11.576;2023-11-19T19:43:06;95436.94;;;10.75;78.41
81608;BME280;71022;48.122;11.576;2023-11-19T19:45:33;95441.38;;;10.80;78.31
81608;BME280;71022;48.122;11.576;2023-11-19T19:48:03;95441.09;;;10.85;78.48
81608;BME280;71022;48.122;11.576;2023-11-19T19:50:33;95438.53;;;10.76;78.80
81608;BME280;71022;48.122;11.576;2023-11-19T19:53:00;95444.84;;;10.77;78.90
81608;BME280;71022;48.122;11.576;2023-11-19T19:55:28;95438.31;;;10.66;79.55
81608;BME280;71022;48.122;11.576;2023-11-19T19:57:57;95433.25;;;10.68;79.31
81608;BME280;71022;48.122;11.576;2023-11-19T20:00:24;95435.09;;;10.64;80.11
81608;BME280;71022;48.122;11.576;2023-11-19T20:02:52;95438.44;;;10.53;80.52
81608;BME280;71022;48.122;11.576;2023-11-19T20:05:19;95446.09;;;10.64;79.87
81608;BME280;71022;48.122;11.576;2023-11-19T20:07:47;95435.78;;;10.57;80.55
81608;BME280;71022;48.122;11.576;2023-11-19T20:10:15;95439.13;;;10.66;80.09
81608;BME280;71022;48.122;11.576;2023-11-19T20:12:43;95446.28;;;10.71;79.67
81608;BME280;71022;48.122;11.576;2023-11-19T20:15:10;95446.28;;;10.71;79.38
81608;BME280;71022;48.122;11.576;2023-11-19T20:17:38;95457.97;;;10.68;79.63
81608;BME280;71022;48.122;11.576;2023-11-19T20:20:06;95450.09;;;10.66;79.22
81608;BME280;71022;48.122;11.576;2023-11-19T20:22:37;95452.47;;;10.68;79.00
81608;BME280;71022;48.122;11.576;2023-11-19T20:25:05;95452.16;;;10.53;79.51
81608;BME280;71022;48.122;11.576;2023-11-19T20:27:33;95459.81;;;10.64;79.13
81608;BME280;71022;48.122;11.576;2023-11-19T20:30:00;95456.13;;;10.56;78.95
81608;BME280;71022;48.122;11.576;2023-11-19T20:32:27;95457.66;;;10.53;78.85
81608;BME280;71022;48.122;11.576;2023-11-19T20:34:55;95468.72;;;10.57;77.87
81608;BME280;71022;48.122;11.576;2023-11-19T20:37:22;95468.78;;;10.61;77.96
81608;BME280;71022;48.122;11.576;2023-11-19T20:39:50;95472.25;;;10.57;78.38
81608;BME280;71022;48.122;11.576;2023-11-19T20:42:17;95470.91;;;10.51;77.81
81608;BME280;71022;48.122;11.576;2023-11-19T20:44:44;95476.88;;;10.53;77.90
81608;BME280;71022;48.122;11.576;2023-11-19T20:47:12;95475.78;;;10.58;77.74
81608;BME280;71022;48.122;11.576;2023-11-19T20:49:39;95478.00;;;10.52;77.97
81608;BME280;71022;48.122;11.576;2023-11-19T20:52:06;95485.81;;;10.50;78.60
81608;BME280;71022;48.122;11.576;2023-11-19T20:54:35;95471.63;;;10.48;78.77
81608;BME280;71022;48.122;11.576;2023-11-19T20:57:05;95471.38;;;10.53;78.60
81608;BME280;71022;48.122;11.576;2023-11-19T20:59:32;95468.78;;;10.61;77.62
81608;BME280;71022;48.122;11.576;2023-11-19T21:02:00;95483.81;;;10.67;76.65